createdAt,value
2018-11-23T00:04:28.054Z,12.47
2018-11-23T00:06:56.199Z,12.57
2018-11-23T00:09:24.787Z,12.47
2018-11-23T00:11:52.749Z,13.37
2018-11-23T00:14:21.191Z,15.28
2018-11-23T00:16:49.197Z,14.23
2018-11-23T00:19:17.566Z,12.83
2018-11-23T00:24:12.701Z,12.97
2018-11-23T00:27:44.814Z,12.37
2018-11-23T00:30:17.633Z,13.57
2018-11-23T00:32:45.770Z,12.37
2018-11-23T00:37:43.053Z,12.10
2018-11-23T00:42:40.855Z,12.00
2018-11-23T00:47:37.819Z,10.73
2018-11-23T00:50:08.586Z,12.67
2018-11-23T00:52:36.575Z,12.90
2018-11-23T00:57:32.474Z,14.35
2018-11-23T01:00:00.303Z,10.03
2018-11-23T01:02:28.058Z,11.10
2018-11-23T01:04:56.020Z,11.20
2018-11-23T01:07:23.946Z,10.93
2018-11-23T01:09:51.850Z,11.60
2018-11-23T01:12:19.693Z,11.60
2018-11-23T01:14:47.742Z,11.75
2018-11-23T01:17:15.699Z,12.00
2018-11-23T01:19:43.603Z,11.80
2018-11-23T01:22:11.663Z,12.03
2018-11-23T01:24:39.492Z,12.37
2018-11-23T01:27:07.303Z,12.23
2018-11-23T01:29:35.043Z,11.13
2018-11-23T01:32:02.875Z,10.73
2018-11-23T01:34:30.661Z,11.40
2018-11-23T01:36:58.639Z,9.73
2018-11-23T01:39:26.501Z,11.50
2018-11-23T01:41:54.499Z,9.73
2018-11-23T01:44:22.299Z,10.55
2018-11-23T01:46:50.012Z,10.13
2018-11-23T01:51:45.209Z,11.50
2018-11-23T01:54:12.916Z,11.80
2018-11-23T01:56:40.670Z,12.03
2018-11-23T01:59:08.725Z,11.43
2018-11-23T02:01:36.583Z,12.20
2018-11-23T02:04:04.478Z,12.15
2018-11-23T02:06:32.392Z,12.03
2018-11-23T02:09:00.063Z,12.37
2018-11-23T02:12:38.206Z,10.88
2018-11-23T02:15:11.453Z,11.03
2018-11-23T02:17:39.200Z,10.97
2018-11-23T02:20:09.211Z,11.40
2018-11-23T02:22:36.994Z,11.00
2018-11-23T02:25:05.185Z,11.43
2018-11-23T02:30:00.063Z,12.90
2018-11-23T02:32:27.976Z,11.00
2018-11-23T02:34:55.659Z,10.50
2018-11-23T02:37:23.368Z,9.70
2018-11-23T02:39:51.300Z,13.00
2018-11-23T02:42:18.983Z,10.53
2018-11-23T02:44:46.659Z,9.53
2018-11-23T02:47:14.303Z,9.30
2018-11-23T02:49:41.991Z,10.13
2018-11-23T02:54:37.003Z,10.63
2018-11-23T02:57:05.307Z,10.68
2018-11-23T02:59:32.990Z,10.20
2018-11-23T03:02:00.783Z,11.50
2018-11-23T03:04:28.607Z,11.70
2018-11-23T03:06:56.455Z,11.17
2018-11-23T03:09:24.186Z,11.77
2018-11-23T03:11:51.760Z,11.88
2018-11-23T03:14:19.596Z,11.73
2018-11-23T03:16:47.312Z,10.70
2018-11-23T03:19:14.986Z,9.73
2018-11-23T03:21:42.673Z,9.58
2018-11-23T03:24:10.584Z,9.00
2018-11-23T03:26:38.304Z,9.20
2018-11-23T03:29:06.003Z,9.80
2018-11-23T03:31:33.671Z,10.23
2018-11-23T03:34:01.324Z,10.03
2018-11-23T03:36:29.035Z,9.33
2018-11-23T03:41:23.967Z,9.80
2018-11-23T03:43:51.764Z,10.50
2018-11-23T03:46:19.559Z,11.03
2018-11-23T03:48:47.238Z,10.85
2018-11-23T03:51:14.763Z,11.00
2018-11-23T03:53:42.562Z,11.47
2018-11-23T03:56:10.315Z,12.27
2018-11-23T03:58:37.955Z,11.57
2018-11-23T04:01:06.070Z,10.13
2018-11-23T04:03:33.763Z,9.53
2018-11-23T04:06:01.554Z,9.47
2018-11-23T04:08:29.221Z,10.28
2018-11-23T04:10:56.795Z,9.30
2018-11-23T04:15:51.680Z,10.47
2018-11-23T04:18:19.563Z,9.10
2018-11-23T04:20:51.938Z,9.47
2018-11-23T04:23:19.649Z,10.97
2018-11-23T04:25:47.311Z,10.20
2018-11-23T04:28:15.175Z,10.00
2018-11-23T04:30:42.768Z,10.47
2018-11-23T04:33:10.600Z,11.20
2018-11-23T04:35:38.438Z,11.57
2018-11-23T04:38:06.071Z,11.53
2018-11-23T04:40:33.930Z,13.67
2018-11-23T04:43:01.762Z,10.73
2018-11-23T04:45:29.603Z,9.30
2018-11-23T04:47:57.314Z,9.17
2018-11-23T04:50:25.046Z,8.80
2018-11-23T04:55:20.044Z,8.83
2018-11-23T04:57:53.609Z,8.35
2018-11-23T05:00:16.821Z,8.57
2018-11-23T05:02:45.508Z,8.37
2018-11-23T05:05:13.574Z,10.73
2018-11-23T05:07:42.472Z,9.83
2018-11-23T05:10:12.027Z,9.60
2018-11-23T05:15:08.341Z,10.30
2018-11-23T05:17:36.217Z,11.47
2018-11-23T05:20:04.586Z,11.77
2018-11-23T05:22:32.247Z,9.93
2018-11-23T05:24:59.772Z,9.63
2018-11-23T05:27:27.571Z,9.03
2018-11-23T05:29:55.210Z,8.90
2018-11-23T05:32:22.871Z,9.03
2018-11-23T05:39:44.971Z,8.93
2018-11-23T05:42:12.712Z,9.30
2018-11-23T05:44:40.530Z,9.70
2018-11-23T05:47:08.315Z,9.63
2018-11-23T05:49:35.969Z,8.93
2018-11-23T05:52:03.696Z,9.87
2018-11-23T05:54:31.326Z,9.50
2018-11-23T05:56:59.008Z,10.50
2018-11-23T05:59:26.680Z,10.63
2018-11-23T06:01:54.496Z,11.50
2018-11-23T06:04:22.231Z,11.88
2018-11-23T06:06:49.895Z,11.95
2018-11-23T06:09:17.637Z,10.30
2018-11-23T06:11:46.201Z,11.38
2018-11-23T06:14:13.851Z,8.43
2018-11-23T06:16:41.695Z,10.35
2018-11-23T06:21:36.954Z,8.67
2018-11-23T06:24:05.189Z,8.25
2018-11-23T06:26:33.208Z,8.93
2018-11-23T06:29:00.796Z,9.60
2018-11-23T06:33:55.764Z,9.23
2018-11-23T06:36:23.617Z,10.83
2018-11-23T06:39:12.139Z,10.55
2018-11-23T06:41:39.767Z,11.27
2018-11-23T06:44:07.712Z,10.63
2018-11-23T06:46:35.542Z,9.73
2018-11-23T06:49:03.219Z,12.20
2018-11-23T06:51:31.426Z,11.00
2018-11-23T06:53:59.465Z,9.00
2018-11-23T06:56:27.292Z,9.30
2018-11-23T06:58:55.075Z,11.90
2018-11-23T07:03:50.387Z,10.63
2018-11-23T07:06:18.518Z,9.47
2018-11-23T07:08:52.204Z,9.20
2018-11-23T07:11:13.998Z,7.97
2018-11-23T07:13:41.875Z,10.13
2018-11-23T07:18:37.063Z,10.10
2018-11-23T07:21:05.224Z,11.83
2018-11-23T07:23:33.021Z,10.23
2018-11-23T07:26:00.766Z,10.15
2018-11-23T07:28:28.761Z,12.10
2018-11-23T07:31:02.102Z,10.67
2018-11-23T07:33:24.590Z,9.90
2018-11-23T07:35:52.406Z,9.70
2018-11-23T07:41:05.432Z,11.87
2018-11-23T07:43:33.219Z,11.37
2018-11-23T07:46:00.986Z,9.73
2018-11-23T07:48:28.675Z,8.93
2018-11-23T07:50:56.518Z,8.97
2018-11-23T07:53:24.188Z,10.27
2018-11-23T07:55:52.352Z,11.33
2018-11-23T07:58:20.007Z,10.73
2018-11-23T08:00:47.792Z,10.90
2018-11-23T08:03:15.590Z,11.73
2018-11-23T08:05:43.475Z,9.83
2018-11-23T08:08:11.203Z,11.07
2018-11-23T08:10:38.354Z,11.17
2018-11-23T08:13:06.070Z,8.87
2018-11-23T08:15:34.033Z,9.00
2018-11-23T08:18:02.385Z,9.23
2018-11-23T08:20:30.064Z,8.57
2018-11-23T08:25:25.968Z,10.20
2018-11-23T08:27:54.875Z,10.50
2018-11-23T08:30:25.027Z,9.90
2018-11-23T08:35:20.503Z,9.23
2018-11-23T08:37:48.205Z,8.67
2018-11-23T08:40:22.647Z,9.98
2018-11-23T08:42:51.023Z,10.20
2018-11-23T08:47:47.684Z,9.83
2018-11-23T08:50:18.026Z,9.83
2018-11-23T08:55:13.765Z,8.90
2018-11-23T08:57:41.827Z,8.83
2018-11-23T09:00:14.588Z,9.23
2018-11-23T09:02:43.051Z,8.17
2018-11-23T09:07:38.078Z,9.33
2018-11-23T09:10:09.023Z,9.90
2018-11-23T09:15:05.578Z,11.07
2018-11-23T09:17:33.294Z,10.37
2018-11-23T09:20:01.011Z,10.13
2018-11-23T09:22:28.951Z,9.28
2018-11-23T09:24:56.683Z,10.73
2018-11-23T09:27:24.538Z,10.10
2018-11-23T09:29:52.231Z,10.23
2018-11-23T09:32:20.035Z,9.70
2018-11-23T09:34:48.015Z,11.57
2018-11-23T09:37:15.943Z,9.27
2018-11-23T09:42:11.228Z,8.33
2018-11-23T09:44:39.015Z,8.10
2018-11-23T09:47:10.172Z,8.90
2018-11-23T09:49:34.774Z,8.10
2018-11-23T09:52:02.591Z,8.88
2018-11-23T09:54:30.366Z,10.37
2018-11-23T09:59:25.591Z,11.55
2018-11-23T10:01:53.416Z,9.83
2018-11-23T10:06:48.319Z,9.35
2018-11-23T10:09:16.006Z,8.07
2018-11-23T10:11:43.817Z,10.03
2018-11-23T10:14:11.594Z,11.10
2018-11-23T10:16:39.464Z,9.47
2018-11-23T10:19:12.627Z,7.97
2018-11-23T10:24:08.712Z,10.80
2018-11-23T10:26:36.591Z,8.80
2018-11-23T10:29:04.718Z,8.87
2018-11-23T10:31:32.565Z,7.67
2018-11-23T10:34:00.227Z,7.77
2018-11-23T10:36:28.147Z,8.80
2018-11-23T10:38:55.771Z,8.50
2018-11-23T10:43:50.825Z,14.10
2018-11-23T10:46:18.606Z,12.73
2018-11-23T10:48:46.519Z,9.55
2018-11-23T10:51:14.206Z,14.10
2018-11-23T10:53:41.859Z,9.17
2018-11-23T10:58:35.471Z,8.38
2018-11-23T11:01:08.891Z,8.20
2018-11-23T11:03:41.309Z,9.83
2018-11-23T11:06:14.794Z,8.97
2018-11-23T11:08:42.618Z,10.40
2018-11-23T11:11:13.564Z,7.90
2018-11-23T11:13:38.215Z,8.67
2018-11-23T11:16:05.997Z,7.87
2018-11-23T11:21:01.081Z,11.90
2018-11-23T11:23:28.815Z,13.48
2018-11-23T11:25:56.675Z,9.53
2018-11-23T11:28:24.591Z,9.50
2018-11-23T11:30:52.455Z,11.30
2018-11-23T11:33:20.395Z,11.70
2018-11-23T11:35:48.071Z,9.77
2018-11-23T11:38:15.966Z,10.68
2018-11-23T11:40:43.794Z,9.77
2018-11-23T11:44:07.201Z,10.32
2018-11-23T11:46:34.846Z,15.07
2018-11-23T11:49:02.623Z,9.90
2018-11-23T11:51:30.415Z,10.08
2018-11-23T11:53:58.567Z,11.47
2018-11-23T11:56:26.201Z,11.70
2018-11-23T11:58:53.927Z,10.93
2018-11-23T12:03:50.233Z,11.97
2018-11-23T12:06:17.765Z,10.40
2018-11-23T12:08:45.893Z,13.47
2018-11-23T12:11:13.635Z,11.65
2018-11-23T12:13:41.306Z,11.50
2018-11-23T12:18:36.369Z,8.85
2018-11-23T12:21:04.215Z,10.33
2018-11-23T12:23:32.156Z,10.80
2018-11-23T12:25:59.916Z,11.40
2018-11-23T12:28:27.700Z,13.88
2018-11-23T12:30:55.594Z,11.57
2018-11-23T12:33:23.217Z,9.00
2018-11-23T12:35:50.775Z,9.70
2018-11-23T12:40:45.919Z,11.20
2018-11-23T12:43:13.687Z,14.13
2018-11-23T12:45:41.751Z,16.67
2018-11-23T12:48:09.624Z,15.70
2018-11-23T12:50:37.609Z,11.03
2018-11-23T12:53:06.531Z,18.60
2018-11-23T12:55:33.727Z,15.20
2018-11-23T12:58:01.550Z,16.27
2018-11-23T13:00:29.571Z,14.80
2018-11-23T13:02:58.647Z,13.72
2018-11-23T13:05:27.212Z,12.17
2018-11-23T13:07:55.855Z,14.83
2018-11-23T13:10:24.462Z,18.63
2018-11-23T13:12:52.954Z,13.40
2018-11-23T13:15:22.855Z,13.75
2018-11-23T13:17:52.786Z,11.90
2018-11-23T13:20:21.919Z,12.80
2018-11-23T13:22:51.050Z,11.57
2018-11-23T13:28:56.551Z,9.88
2018-11-23T13:31:24.376Z,11.33
2018-11-23T13:33:53.030Z,11.48
2018-11-23T13:36:21.065Z,14.23
2018-11-23T13:38:48.856Z,12.43
2018-11-23T13:41:16.895Z,15.15
2018-11-23T13:43:44.643Z,17.87
2018-11-23T13:46:12.328Z,13.55
2018-11-23T13:48:40.306Z,13.37
2018-11-23T13:51:08.009Z,12.70
2018-11-23T13:55:33.853Z,36.25
2018-11-23T13:58:01.963Z,34.57
2018-11-23T14:00:30.197Z,23.60
2018-11-23T14:02:58.184Z,20.90
2018-11-23T14:05:27.600Z,15.80
2018-11-23T14:07:57.003Z,12.77
2018-11-23T14:12:53.557Z,14.10
2018-11-23T14:15:22.944Z,16.83
2018-11-23T14:20:19.610Z,15.23
2018-11-23T14:22:47.883Z,12.03
2018-11-23T14:25:17.283Z,17.30
2018-11-23T14:27:45.382Z,11.00
2018-11-23T14:30:15.699Z,9.93
2018-11-23T14:32:43.751Z,13.93
2018-11-23T14:35:13.307Z,14.03
2018-11-23T14:37:41.440Z,13.20
2018-11-23T14:40:10.054Z,10.70
2018-11-23T14:42:38.594Z,11.27
2018-11-23T14:45:17.435Z,12.40
2018-11-23T14:47:45.454Z,14.13
2018-11-23T14:50:15.962Z,14.00
2018-11-23T14:52:44.809Z,12.70
2018-11-23T14:55:12.766Z,9.37
2018-11-23T14:57:41.561Z,9.40
2018-11-23T15:00:26.015Z,9.27
2018-11-23T15:05:22.318Z,9.33
2018-11-23T15:07:50.607Z,8.57
2018-11-23T15:10:20.596Z,8.65
2018-11-23T15:12:50.607Z,11.67
2018-11-23T15:15:20.470Z,10.17
2018-11-23T15:17:49.628Z,8.50
2018-11-23T15:20:20.433Z,8.67
2018-11-23T15:22:51.323Z,8.73
2018-11-23T15:25:20.324Z,10.57
2018-11-23T15:27:48.564Z,8.43
2018-11-23T15:30:20.224Z,6.40
2018-11-23T15:32:48.724Z,9.10
2018-11-23T15:37:45.667Z,9.37
2018-11-23T15:40:20.324Z,8.37
2018-11-23T15:42:49.810Z,7.50
2018-11-23T15:45:19.485Z,7.23
2018-11-23T15:47:47.789Z,12.58
2018-11-23T15:50:18.690Z,28.38
2018-11-23T15:52:47.643Z,30.03
2018-11-23T15:55:19.341Z,14.30
2018-11-23T15:57:48.549Z,19.60
2018-11-23T16:03:00.014Z,13.93
2018-11-23T16:05:28.006Z,12.03
2018-11-23T16:07:58.209Z,10.60
2018-11-23T16:10:28.303Z,12.07
2018-11-23T16:12:57.519Z,13.83
2018-11-23T16:15:26.503Z,15.33
2018-11-23T16:17:54.590Z,15.43
2018-11-23T16:20:25.301Z,14.17
2018-11-23T16:22:54.722Z,13.93
2018-11-23T16:25:25.755Z,11.63
2018-11-23T16:27:55.306Z,9.53
2018-11-23T16:30:24.236Z,13.30
2018-11-23T16:32:53.519Z,13.00
2018-11-23T16:35:26.603Z,18.63
2018-11-23T16:37:55.310Z,17.30
2018-11-23T16:40:24.429Z,17.27
2018-11-23T16:42:52.909Z,11.27
2018-11-23T16:47:51.523Z,8.90
2018-11-23T16:50:19.306Z,9.57
2018-11-23T16:52:47.996Z,9.30
2018-11-23T16:55:16.826Z,9.37
2018-11-23T16:57:46.006Z,10.53
2018-11-23T17:02:45.436Z,17.10
2018-11-23T17:05:14.470Z,14.73
2018-11-23T17:07:42.218Z,15.90
2018-11-23T17:10:12.303Z,18.30
2018-11-23T17:12:40.494Z,19.70
2018-11-23T17:15:10.540Z,19.40
2018-11-23T17:17:38.516Z,21.90
2018-11-23T17:20:10.875Z,19.43
2018-11-23T17:22:38.842Z,22.80
2018-11-23T17:25:08.378Z,26.40
2018-11-23T17:27:36.051Z,30.13
2018-11-23T17:30:04.585Z,25.88
2018-11-23T17:32:32.301Z,35.13
2018-11-23T17:34:59.993Z,30.47
2018-11-23T17:37:27.735Z,31.60
2018-11-23T17:39:55.581Z,32.93
2018-11-23T17:42:23.686Z,45.40
2018-11-23T17:44:51.672Z,41.33
2018-11-23T17:47:19.407Z,47.60
2018-11-23T17:49:47.203Z,43.75
2018-11-23T17:52:14.751Z,39.73
2018-11-23T17:54:42.701Z,36.60
2018-11-23T17:59:42.777Z,36.33
2018-11-23T18:02:10.715Z,33.33
2018-11-23T18:04:38.535Z,29.70
2018-11-23T18:07:06.500Z,36.87
2018-11-23T18:09:36.178Z,39.83
2018-11-23T18:12:03.947Z,38.93
2018-11-23T18:14:31.763Z,37.40
2018-11-23T18:19:26.663Z,30.77
2018-11-23T18:21:54.466Z,31.87
2018-11-23T18:24:22.197Z,32.70
2018-11-23T18:26:49.995Z,32.30
2018-11-23T18:29:17.800Z,35.10
2018-11-23T18:31:45.613Z,31.90
2018-11-23T18:34:13.543Z,31.35
2018-11-23T18:36:41.203Z,35.27
2018-11-23T18:39:09.187Z,34.90
2018-11-23T18:41:37.597Z,30.60
2018-11-23T18:44:05.822Z,31.77
2018-11-23T18:46:33.828Z,35.10
2018-11-23T18:49:01.717Z,27.52
2018-11-23T18:51:29.691Z,33.17
2018-11-23T18:56:24.804Z,28.83
2018-11-23T18:58:53.532Z,35.23
2018-11-23T19:01:22.032Z,30.07
2018-11-23T19:03:50.858Z,25.35
2018-11-23T19:08:47.457Z,25.15
2018-11-23T19:11:15.585Z,21.53
2018-11-23T19:13:44.063Z,28.23
2018-11-23T19:16:12.434Z,31.57
2018-11-23T19:18:40.631Z,31.97
2018-11-23T19:21:08.903Z,24.53
2018-11-23T19:23:37.816Z,21.00
2018-11-23T19:26:06.529Z,26.12
2018-11-23T19:28:35.039Z,23.30
2018-11-23T19:31:03.545Z,30.43
2018-11-23T19:36:02.215Z,29.17
2018-11-23T19:38:30.711Z,21.57
2018-11-23T19:40:58.886Z,26.53
2018-11-23T19:43:27.292Z,26.07
2018-11-23T19:45:56.198Z,22.17
2018-11-23T19:48:24.906Z,19.30
2018-11-23T19:50:53.197Z,19.70
2018-11-23T19:53:21.539Z,22.00
2018-11-23T19:55:49.976Z,21.90
2018-11-23T19:58:18.624Z,18.60
2018-11-23T20:00:47.226Z,19.80
2018-11-23T20:03:15.339Z,18.47
2018-11-23T20:05:44.183Z,20.90
2018-11-23T20:08:12.583Z,20.57
2018-11-23T20:10:40.877Z,18.43
2018-11-23T20:13:09.459Z,20.10
2018-11-23T20:15:37.919Z,18.67
2018-11-23T20:18:07.376Z,22.27
2018-11-23T20:20:35.538Z,15.20
2018-11-23T20:23:04.049Z,16.27
2018-11-23T20:25:32.325Z,19.07
2018-11-23T20:28:00.576Z,18.07
2018-11-23T20:30:29.230Z,17.45
2018-11-23T20:32:57.540Z,14.33
2018-11-23T20:38:06.815Z,18.67
2018-11-23T20:43:01.815Z,20.00
2018-11-23T20:45:29.696Z,14.30
2018-11-23T20:47:57.574Z,15.80
2018-11-23T20:50:25.314Z,15.80
2018-11-23T20:52:53.018Z,17.90
2018-11-23T20:57:49.659Z,15.97
2018-11-23T21:00:19.315Z,17.60
2018-11-23T21:02:48.591Z,15.27
2018-11-23T21:05:17.786Z,13.33
2018-11-23T21:07:45.648Z,13.10
2018-11-23T21:10:20.297Z,17.40
2018-11-23T21:15:31.580Z,14.13
2018-11-23T21:18:02.657Z,11.47
2018-11-23T21:20:30.554Z,15.20
2018-11-23T21:22:58.488Z,13.60
2018-11-23T21:25:26.182Z,14.47
2018-11-23T21:30:22.603Z,14.57
2018-11-23T21:32:51.309Z,13.60
2018-11-23T21:35:19.156Z,15.13
2018-11-23T21:37:46.763Z,16.00
2018-11-23T21:40:15.418Z,15.63
2018-11-23T21:42:43.238Z,12.70
2018-11-23T21:47:39.597Z,10.77
2018-11-23T21:50:11.583Z,10.67
2018-11-23T21:52:39.303Z,16.62
2018-11-23T21:57:37.459Z,11.17
2018-11-23T22:00:07.593Z,14.47
2018-11-23T22:02:35.308Z,15.83
2018-11-23T22:07:30.302Z,10.05
2018-11-23T22:09:57.997Z,8.90
2018-11-23T22:12:25.751Z,10.67
2018-11-23T22:14:53.663Z,9.20
2018-11-23T22:17:21.472Z,10.53
2018-11-23T22:19:49.307Z,10.47
2018-11-23T22:22:17.195Z,10.93
2018-11-23T22:24:45.187Z,12.93
2018-11-23T22:27:12.948Z,8.88
2018-11-23T22:29:40.650Z,9.85
2018-11-23T22:32:08.504Z,8.25
2018-11-23T22:34:36.307Z,9.73
2018-11-23T22:37:04.195Z,12.33
2018-11-23T22:41:59.034Z,10.43
2018-11-23T22:46:54.208Z,11.67
2018-11-23T22:49:22.194Z,10.83
2018-11-23T22:51:50.011Z,8.40
2018-11-23T22:54:18.003Z,9.67
2018-11-23T22:56:45.959Z,8.40
2018-11-23T23:01:41.018Z,8.57
2018-11-23T23:04:08.752Z,9.10
2018-11-23T23:06:36.614Z,6.93
2018-11-23T23:09:08.066Z,8.93
2018-11-23T23:11:36.586Z,7.20
2018-11-23T23:14:04.639Z,11.10
2018-11-23T23:16:32.307Z,6.90
2018-11-23T23:19:00.012Z,8.67
2018-11-23T23:21:27.747Z,9.43
2018-11-23T23:23:55.567Z,8.83
2018-11-23T23:26:23.307Z,7.57
2018-11-23T23:28:51.030Z,9.73
2018-11-23T23:33:46.009Z,9.50
2018-11-23T23:36:13.763Z,10.13
2018-11-23T23:38:41.579Z,8.67
2018-11-23T23:41:09.456Z,8.78
2018-11-23T23:43:37.558Z,9.20
2018-11-23T23:46:05.226Z,8.97
2018-11-23T23:48:33.041Z,8.53
2018-11-23T23:51:00.909Z,9.27
2018-11-23T23:53:28.639Z,7.60
2018-11-23T23:55:56.767Z,9.27
